Terminal Aerodrome Forecast
Issued by NWS Milwaukee/Sullivan, WI

Home | Current Version | Previous Version | Text Only | Print | Product List | Glossary On
Versions: 1 2 3 4 5 6 7 8 9 10 11 12 13 14 15 16 17 18 19 20 21 22 23 24
000
FTUS43 KMKX 240520
TAFMSN
TAF
KMSN 240520Z 2406/2506 18010G15KT P6SM BKN120 WS020/20050KT
     FM241500 20005KT P6SM VCSH BKN050
     FM242100 29005KT P6SM VCSH BKN025
     FM250000 03007KT 2SM -SHRA OVC008
     FM250200 05009KT 2SM -SHRA OVC003=

USA.gov is the U.S. government's official web portal to all federal, state and local government web resources and services.